Time;durP1;ratioP1;P1;durP2;ratioP2;P2;SDS_P1;SDS_P2;PMS_P1;PMS_P2;Temp;Humidity;BMP_temperature;BMP_pressure;BME280_temperature;BME280_humidity;BME280_pressure;Samples;Min_cycle;Max_cycle;Signal;HPM_P1;HPM_P2
2022/03/12 00:00:30;;;;;;;;;;;0.20;99.90;;;;;;4193255;28;20101;-47
2022/03/12 00:02:32;;;;;;;;;;;0.20;99.90;;;;;;4192897;28;20420;-47
2022/03/12 00:04:34;;;;;;;;;;;0.20;99.90;;;;;;4193270;28;19924;-49
2022/03/12 00:06:36;;;;;;;;;;;0.10;99.90;;;;;;4193593;28;20388;-48
2022/03/12 00:08:44;;;;;;;;;;;0.10;99.90;;;;;;4193150;28;19931;-49
2022/03/12 00:10:50;;;;;;;;;;;0.10;99.90;;;;;;4192709;28;19978;-48
2022/03/12 00:12:53;;;;;;;;;;;0.00;99.90;;;;;;4193066;28;19929;-48
2022/03/12 00:14:55;;;;;;;;;;;0.00;99.90;;;;;;4193418;28;19974;-46
2022/03/12 00:16:57;;;;;;;;;;;-0.10;99.90;;;;;;4193654;28;19964;-46
2022/03/12 00:19:01;;;;;;;;;;;-0.10;99.90;;;;;;4192792;28;20015;-47
2022/03/12 00:21:06;;;;;;;;;;;-0.20;99.90;;;;;;4194745;28;19929;-48
2022/03/12 00:23:10;;;;;;;;;;;-0.30;99.90;;;;;;4193531;28;19947;-49
2022/03/12 00:25:18;;;;;;;;;;;-0.20;99.90;;;;;;4194434;28;19976;-46
2022/03/12 00:27:20;;;;;;;;;;;-0.30;99.90;;;;;;4192926;28;19975;-47
2022/03/12 00:29:23;;;;;;;;;;;-0.40;99.90;;;;;;4193272;28;20003;-46
2022/03/12 00:31:25;;;;;;;;;;;-0.30;99.90;;;;;;4193121;28;19951;-47
2022/03/12 00:33:27;;;;;;;;;;;-0.30;99.90;;;;;;4193281;28;19925;-49
2022/03/12 00:35:29;;;;;;;;;;;-0.40;99.90;;;;;;4193431;28;19924;-48
2022/03/12 00:37:31;;;;;;;;;;;-0.40;99.90;;;;;;4187576;28;19932;-49
2022/03/12 00:39:33;;;;;;;;;;;-0.50;99.90;;;;;;4193025;28;20455;-47
2022/03/12 00:41:36;;;;;;;;;;;-0.60;99.90;;;;;;4194436;28;19982;-49
2022/03/12 00:43:38;;;;;;;;;;;-0.70;99.90;;;;;;4192983;28;19955;-47
2022/03/12 00:45:40;;;;;;;;;;;-0.80;99.90;;;;;;4193060;28;19928;-49
2022/03/12 00:47:42;;;;;;;;;;;-0.70;99.90;;;;;;4192962;28;19986;-47
2022/03/12 00:49:45;;;;;;;;;;;-0.70;99.90;;;;;;4190841;28;19932;-48
2022/03/12 00:51:48;;;;;;;;;;;-0.70;99.90;;;;;;4193103;28;20307;-49
2022/03/12 00:53:50;;;;;;;;;;;-0.70;99.90;;;;;;4192827;28;19929;-47
2022/03/12 00:55:52;;;;;;;;;;;-0.60;99.90;;;;;;4192830;28;20035;-49
2022/03/12 00:57:54;;;;;;;;;;;-0.70;99.90;;;;;;4192919;28;19936;-50
2022/03/12 00:59:56;;;;;;;;;;;-0.80;99.90;;;;;;4192761;28;19928;-49
2022/03/12 01:01:58;;;;;;;;;;;-0.90;99.90;;;;;;4192663;28;20388;-46
2022/03/12 01:04:00;;;;;;;;;;;-0.90;99.90;;;;;;4190362;28;20046;-46
2022/03/12 01:06:03;;;;;;;;;;;-0.80;99.90;;;;;;4191817;28;20437;-47
2022/03/12 01:08:05;;;;;;;;;;;-0.80;99.90;;;;;;4190925;28;19931;-49
2022/03/12 01:10:07;;;;;;;;;;;-0.90;99.90;;;;;;4192149;28;20118;-49
2022/03/12 01:12:10;;;;;;;;;;;-0.90;99.90;;;;;;4192609;28;19967;-46
2022/03/12 01:14:12;;;;;;;;;;;-0.90;99.90;;;;;;4193002;28;20034;-46
2022/03/12 01:16:14;;;;;;;;;;;-0.80;99.90;;;;;;4192689;28;20379;-49
2022/03/12 01:18:17;;;;;;;;;;;-0.80;99.90;;;;;;4192327;28;19928;-48
2022/03/12 01:20:20;;;;;;;;;;;-0.80;99.90;;;;;;4193011;28;19929;-47
2022/03/12 01:22:22;;;;;;;;;;;-0.80;99.90;;;;;;4192647;28;19964;-49
2022/03/12 01:24:24;;;;;;;;;;;-0.80;99.90;;;;;;4193139;28;19928;-49
2022/03/12 01:26:26;;;;;;;;;;;-0.70;99.90;;;;;;4195829;28;20384;-47
2022/03/12 01:28:28;;;;;;;;;;;-0.80;99.90;;;;;;4195331;28;19951;-46
2022/03/12 01:30:31;;;;;;;;;;;-0.90;99.90;;;;;;4195706;28;20357;-49
2022/03/12 01:32:33;;;;;;;;;;;-0.90;99.90;;;;;;4195793;28;20530;-48
2022/03/12 01:34:35;;;;;;;;;;;-1.00;99.90;;;;;;4195548;28;19928;-48
2022/03/12 01:36:36;;;;;;;;;;;-1.10;99.90;;;;;;4195681;28;19936;-49
2022/03/12 01:38:52;;;;;;;;;;;-1.20;99.90;;;;;;4195456;28;19976;-46
2022/03/12 01:40:54;;;;;;;;;;;-1.30;99.90;;;;;;4194123;28;19972;-48
2022/03/12 01:42:56;;;;;;;;;;;-1.30;99.90;;;;;;4194217;28;20478;-46
2022/03/12 01:44:58;;;;;;;;;;;-1.30;99.90;;;;;;4195781;28;19933;-49
2022/03/12 01:47:05;;;;;;;;;;;-1.30;99.90;;;;;;4195335;28;19974;-49
2022/03/12 01:49:12;;;;;;;;;;;-1.20;99.90;;;;;;4195449;28;19924;-48
2022/03/12 01:51:15;;;;;;;;;;;-1.20;99.90;;;;;;4195329;28;19982;-48
2022/03/12 01:53:17;;;;;;;;;;;-1.10;99.90;;;;;;4194461;28;19935;-50
2022/03/12 01:55:19;;;;;;;;;;;-1.10;99.90;;;;;;4195324;28;19925;-48
2022/03/12 01:57:21;;;;;;;;;;;-1.20;99.90;;;;;;4195386;28;19968;-50
2022/03/12 01:59:23;;;;;;;;;;;-1.20;99.90;;;;;;4194114;28;19967;-46
2022/03/12 02:01:28;;;;;;;;;;;-1.20;99.90;;;;;;4195697;28;19928;-47
2022/03/12 02:03:32;;;;;;;;;;;-1.20;99.90;;;;;;4190305;28;19925;-47
2022/03/12 02:05:35;;;;;;;;;;;-1.10;99.90;;;;;;4182833;28;19928;-43
2022/03/12 02:07:36;;;;;;;;;;;-1.20;99.90;;;;;;4195238;28;19939;-45
2022/03/12 02:09:39;;;;;;;;;;;-1.20;99.90;;;;;;4195161;28;19976;-44
2022/03/12 02:11:42;;;;;;;;;;;-1.30;99.90;;;;;;4194966;28;19931;-43
2022/03/12 02:13:43;;;;;;;;;;;-1.30;99.90;;;;;;4194786;28;20300;-44
2022/03/12 02:15:45;;;;;;;;;;;-1.30;99.90;;;;;;4194889;28;19928;-44
2022/03/12 02:17:47;;;;;;;;;;;-1.30;99.90;;;;;;4195023;28;19955;-45
2022/03/12 02:19:49;;;;;;;;;;;-1.30;99.90;;;;;;4193607;28;20039;-44
2022/03/12 02:21:51;;;;;;;;;;;-1.40;99.90;;;;;;4184391;28;20518;-45
2022/03/12 02:23:53;;;;;;;;;;;-1.40;99.90;;;;;;4195163;28;20396;-47
2022/03/12 02:26:00;;;;;;;;;;;-1.40;99.90;;;;;;4194547;28;19928;-47
2022/03/12 02:28:09;;;;;;;;;;;-1.60;99.90;;;;;;4194961;28;19964;-45
2022/03/12 02:30:12;;;;;;;;;;;-1.60;99.90;;;;;;4194830;28;19936;-45
2022/03/12 02:32:17;;;;;;;;;;;-1.70;99.90;;;;;;4194711;28;19960;-44
2022/03/12 02:34:21;;;;;;;;;;;-1.70;99.90;;;;;;4194555;28;20445;-48
2022/03/12 02:36:25;;;;;;;;;;;-1.60;99.90;;;;;;4192920;28;19978;-46
2022/03/12 02:38:28;;;;;;;;;;;-1.50;99.90;;;;;;4193745;28;19978;-45
2022/03/12 02:40:31;;;;;;;;;;;-1.50;99.90;;;;;;4193155;28;19928;-45
2022/03/12 02:42:37;;;;;;;;;;;-1.50;99.90;;;;;;4194502;28;20010;-48
2022/03/12 02:44:38;;;;;;;;;;;-1.50;99.90;;;;;;4193914;28;21132;-43
2022/03/12 02:46:41;;;;;;;;;;;-1.60;99.90;;;;;;4194096;28;19929;-44
2022/03/12 02:48:48;;;;;;;;;;;-1.70;99.90;;;;;;4194299;28;19981;-46
2022/03/12 02:50:51;;;;;;;;;;;-1.70;99.90;;;;;;4193734;28;19974;-44
2022/03/12 02:52:54;;;;;;;;;;;-1.70;99.90;;;;;;4194604;28;20403;-44
2022/03/12 02:54:57;;;;;;;;;;;-1.60;99.90;;;;;;4194376;28;19936;-46
2022/03/12 02:57:01;;;;;;;;;;;-1.60;99.90;;;;;;4187163;28;19993;-46
2022/03/12 02:59:06;;;;;;;;;;;-1.60;99.90;;;;;;4194084;28;19931;-47
2022/03/12 03:01:13;;;;;;;;;;;-1.60;99.90;;;;;;4194045;28;20389;-46
2022/03/12 03:03:16;;;;;;;;;;;-1.60;99.90;;;;;;4194296;28;19928;-46
2022/03/12 03:05:33;;;;;;;;;;;-1.60;99.90;;;;;;4194683;28;19924;-45
2022/03/12 03:07:35;;;;;;;;;;;-1.50;99.90;;;;;;4194319;28;20414;-43
2022/03/12 03:09:38;;;;;;;;;;;-1.40;99.90;;;;;;4193671;28;19951;-44
2022/03/12 03:11:40;;;;;;;;;;;-1.40;99.90;;;;;;4194455;28;19944;-46
2022/03/12 03:13:44;;;;;;;;;;;-1.30;99.90;;;;;;4193824;28;20330;-47
2022/03/12 03:15:47;;;;;;;;;;;-1.30;99.90;;;;;;4193996;28;19928;-48
2022/03/12 03:17:49;;;;;;;;;;;-1.30;99.90;;;;;;4193813;28;19964;-47
2022/03/12 03:19:52;;;;;;;;;;;-1.30;99.90;;;;;;4194086;28;19947;-48
2022/03/12 03:21:54;;;;;;;;;;;-1.50;99.90;;;;;;4193717;28;19928;-47
2022/03/12 03:23:56;;;;;;;;;;;-1.80;99.90;;;;;;4193965;28;19939;-46
2022/03/12 03:26:01;;;;;;;;;;;-1.90;99.90;;;;;;4193330;28;19951;-47
2022/03/12 03:28:05;;;;;;;;;;;-1.90;99.90;;;;;;4194184;28;19974;-47
2022/03/12 03:30:08;;;;;;;;;;;-1.90;99.90;;;;;;4193286;28;19955;-47
2022/03/12 03:32:09;;;;;;;;;;;-1.80;99.90;;;;;;4192652;28;20304;-45
2022/03/12 03:34:12;;;;;;;;;;;-1.90;99.90;;;;;;4193786;28;19994;-47
2022/03/12 03:36:14;;;;;;;;;;;-2.00;99.90;;;;;;4193831;28;19936;-47
2022/03/12 03:38:16;;;;;;;;;;;-2.10;99.90;;;;;;4193879;28;19950;-45
2022/03/12 03:40:18;;;;;;;;;;;-2.20;99.90;;;;;;4192220;28;20419;-46
2022/03/12 03:42:21;;;;;;;;;;;-2.30;99.90;;;;;;4193900;28;20388;-47
2022/03/12 03:44:27;;;;;;;;;;;-2.40;99.90;;;;;;4193421;28;19929;-47
2022/03/12 03:46:29;;;;;;;;;;;-2.60;99.90;;;;;;4177905;28;19929;-44
2022/03/12 03:48:37;;;;;;;;;;;-2.60;99.90;;;;;;4193589;28;19948;-48
2022/03/12 03:50:41;;;;;;;;;;;-2.60;99.90;;;;;;4192804;28;19935;-45
2022/03/12 03:52:43;;;;;;;;;;;-2.50;99.90;;;;;;4193555;28;19929;-47
2022/03/12 03:54:49;;;;;;;;;;;-2.50;99.90;;;;;;4193171;28;20003;-46
2022/03/12 03:56:51;;;;;;;;;;;-2.50;99.90;;;;;;4193781;28;20266;-46
2022/03/12 03:58:53;;;;;;;;;;;-2.50;99.90;;;;;;4193619;28;19929;-45
2022/03/12 04:00:57;;;;;;;;;;;-2.60;99.90;;;;;;4193282;28;19924;-47
2022/03/12 04:03:02;;;;;;;;;;;-2.60;99.90;;;;;;4193733;28;19924;-45
2022/03/12 04:05:05;;;;;;;;;;;-2.60;99.90;;;;;;4193453;28;19924;-46
2022/03/12 04:07:07;;;;;;;;;;;-2.60;99.90;;;;;;4193074;28;20367;-47
2022/03/12 04:09:09;;;;;;;;;;;-2.50;99.90;;;;;;4193961;28;19928;-47
2022/03/12 04:11:15;;;;;;;;;;;-2.40;99.90;;;;;;4193490;28;20370;-46
2022/03/12 04:13:37;;;;;;;;;;;-2.40;99.90;;;;;;4192172;28;19963;-46
2022/03/12 04:16:00;;;;;;;;;;;-2.40;99.90;;;;;;4192457;28;19935;-48
2022/03/12 04:18:22;;;;;;;;;;;-2.30;99.90;;;;;;4184673;28;20408;-44
2022/03/12 04:20:26;;;;;;;;;;;-2.20;99.90;;;;;;4192016;28;19928;-47
2022/03/12 04:22:29;;;;;;;;;;;-2.10;99.90;;;;;;4193575;28;20005;-48
2022/03/12 04:24:31;;;;;;;;;;;-2.00;99.90;;;;;;4193258;28;19935;-45
2022/03/12 04:26:35;;;;;;;;;;;-2.00;99.90;;;;;;4193235;28;19963;-46
2022/03/12 04:28:38;;;;;;;;;;;-1.90;99.90;;;;;;4193184;28;20081;-45
2022/03/12 04:30:39;;;;;;;;;;;-2.00;99.90;;;;;;4193525;28;19932;-44
2022/03/12 04:32:45;;;;;;;;;;;-2.00;99.90;;;;;;4192879;28;20217;-48
2022/03/12 04:34:47;;;;;;;;;;;-2.00;99.90;;;;;;4193545;28;19936;-44
2022/03/12 04:36:49;;;;;;;;;;;-2.10;99.90;;;;;;4193271;28;19928;-44
2022/03/12 04:38:52;;;;;;;;;;;-2.10;99.90;;;;;;4191849;28;19928;-47
2022/03/12 04:40:55;;;;;;;;;;;-2.00;99.90;;;;;;4193093;28;19982;-46
2022/03/12 04:42:57;;;;;;;;;;;-2.10;99.90;;;;;;4191822;28;19932;-45
2022/03/12 04:44:58;;;;;;;;;;;-2.10;99.90;;;;;;4184374;28;19978;-45
2022/03/12 04:47:01;;;;;;;;;;;-2.20;99.90;;;;;;4192652;28;19929;-47
2022/03/12 04:49:04;;;;;;;;;;;-2.30;99.90;;;;;;4192618;28;19975;-44
2022/03/12 04:51:06;;;;;;;;;;;-2.30;99.90;;;;;;4193223;28;19932;-48
2022/03/12 04:53:08;;;;;;;;;;;-2.40;99.90;;;;;;4193129;28;19928;-45
2022/03/12 04:55:11;;;;;;;;;;;-2.50;99.90;;;;;;4191690;28;20034;-45
2022/03/12 04:57:13;;;;;;;;;;;-2.50;99.90;;;;;;4193354;28;19924;-48
2022/03/12 04:59:15;;;;;;;;;;;-2.50;99.90;;;;;;4194674;28;20490;-46
2022/03/12 05:01:17;;;;;;;;;;;-2.70;99.90;;;;;;4196139;28;19933;-47
2022/03/12 05:03:21;;;;;;;;;;;-2.60;99.90;;;;;;4197649;28;20025;-46
2022/03/12 05:05:23;;;;;;;;;;;-2.60;99.90;;;;;;4196286;28;20407;-45
2022/03/12 05:07:26;;;;;;;;;;;-2.40;99.90;;;;;;4195837;28;19939;-46
2022/03/12 05:09:28;;;;;;;;;;;-2.40;99.90;;;;;;4196039;28;19924;-46
2022/03/12 05:11:31;;;;;;;;;;;-2.40;99.90;;;;;;4196203;28;19990;-45
2022/03/12 05:13:34;;;;;;;;;;;-2.50;99.90;;;;;;4178282;28;19952;-48
2022/03/12 05:15:39;;;;;;;;;;;-2.50;99.90;;;;;;4195573;28;19928;-48
2022/03/12 05:17:46;;;;;;;;;;;-2.50;99.90;;;;;;4195537;28;19974;-47
2022/03/12 05:19:48;;;;;;;;;;;-2.50;99.90;;;;;;4197158;28;19924;-46
2022/03/12 05:21:50;;;;;;;;;;;-2.40;99.90;;;;;;4195785;28;19954;-48
2022/03/12 05:23:52;;;;;;;;;;;-2.40;99.90;;;;;;4194268;28;19928;-45
2022/03/12 05:25:54;;;;;;;;;;;-2.40;99.90;;;;;;4196376;28;19976;-47
2022/03/12 05:27:56;;;;;;;;;;;-2.40;99.90;;;;;;4194330;28;19928;-48
2022/03/12 05:29:58;;;;;;;;;;;-2.30;99.90;;;;;;4195514;28;19990;-46
2022/03/12 05:32:00;;;;;;;;;;;-2.20;99.90;;;;;;4195765;28;19925;-48
2022/03/12 05:34:02;;;;;;;;;;;-2.20;99.90;;;;;;4195540;28;19928;-45
2022/03/12 05:36:05;;;;;;;;;;;-2.30;99.90;;;;;;4195584;28;19974;-47
2022/03/12 05:38:07;;;;;;;;;;;-2.30;99.90;;;;;;4195753;28;20009;-47
2022/03/12 05:40:09;;;;;;;;;;;-2.30;99.90;;;;;;4195683;28;19986;-46
2022/03/12 05:42:11;;;;;;;;;;;-2.30;99.90;;;;;;4195455;28;19932;-46
2022/03/12 05:44:14;;;;;;;;;;;-2.30;99.90;;;;;;4195376;28;19925;-47
2022/03/12 05:46:19;;;;;;;;;;;-2.30;99.90;;;;;;4195168;28;20491;-48
2022/03/12 05:48:21;;;;;;;;;;;-2.40;99.90;;;;;;4196695;28;19924;-47
2022/03/12 05:50:23;;;;;;;;;;;-2.40;99.90;;;;;;4195573;28;19956;-46
2022/03/12 05:52:25;;;;;;;;;;;-2.50;99.90;;;;;;4195214;28;19931;-45
2022/03/12 05:54:27;;;;;;;;;;;-2.60;99.90;;;;;;4195596;28;20746;-46
2022/03/12 05:56:29;;;;;;;;;;;-2.60;99.90;;;;;;4195351;28;19976;-44
2022/03/12 05:58:36;;;;;;;;;;;-2.50;99.90;;;;;;4195015;28;19924;-44
2022/03/12 06:00:39;;;;;;;;;;;-2.40;99.90;;;;;;4195543;28;19931;-45
2022/03/12 06:02:47;;;;;;;;;;;-2.40;99.90;;;;;;4195122;28;19956;-45
2022/03/12 06:04:49;;;;;;;;;;;-2.40;99.90;;;;;;4195376;28;20468;-43
2022/03/12 06:06:51;;;;;;;;;;;-2.50;99.90;;;;;;4195081;28;19951;-44
2022/03/12 06:08:58;;;;;;;;;;;-2.50;99.90;;;;;;4194812;28;19925;-44
2022/03/12 06:11:01;;;;;;;;;;;-2.70;99.90;;;;;;4194844;28;19955;-46
2022/03/12 06:13:10;;;;;;;;;;;-2.70;99.90;;;;;;4193449;28;19928;-46
2022/03/12 06:15:17;;;;;;;;;;;-2.60;99.90;;;;;;4195171;28;19967;-46
2022/03/12 06:17:19;;;;;;;;;;;-2.60;99.90;;;;;;4183607;28;19994;-45
2022/03/12 06:19:21;;;;;;;;;;;-2.60;99.90;;;;;;4191758;28;19924;-45
2022/03/12 06:21:23;;;;;;;;;;;-2.70;99.90;;;;;;4193574;28;20803;-46
2022/03/12 06:23:26;;;;;;;;;;;-2.60;99.90;;;;;;4194658;28;20380;-45
2022/03/12 06:25:29;;;;;;;;;;;-2.50;99.90;;;;;;4195213;28;19929;-45
2022/03/12 06:27:31;;;;;;;;;;;-2.50;99.90;;;;;;4194572;28;19959;-45
2022/03/12 06:29:35;;;;;;;;;;;-2.50;99.90;;;;;;4194730;28;20022;-46
2022/03/12 06:31:37;;;;;;;;;;;-2.40;99.90;;;;;;4194663;28;19983;-47
2022/03/12 06:33:39;;;;;;;;;;;-2.40;99.90;;;;;;4194447;28;19932;-44
2022/03/12 06:35:42;;;;;;;;;;;-2.40;99.90;;;;;;4195027;28;19987;-45
2022/03/12 06:37:44;;;;;;;;;;;-2.40;99.90;;;;;;4194590;28;19935;-43
2022/03/12 06:39:46;;;;;;;;;;;-2.40;99.90;;;;;;4194693;28;19928;-47
2022/03/12 06:41:48;;;;;;;;;;;-2.30;99.90;;;;;;4194867;28;19928;-47
2022/03/12 06:43:52;;;;;;;;;;;-2.30;99.90;;;;;;4193610;28;20505;-46
2022/03/12 06:45:58;;;;;;;;;;;-2.20;99.90;;;;;;4194914;28;19929;-46
2022/03/12 06:48:00;;;;;;;;;;;-2.20;99.90;;;;;;4194155;28;20288;-46
2022/03/12 06:50:03;;;;;;;;;;;-2.10;99.90;;;;;;4194571;28;19932;-45
2022/03/12 06:52:06;;;;;;;;;;;-2.10;99.90;;;;;;4194532;28;19925;-47
2022/03/12 06:54:08;;;;;;;;;;;-2.00;99.90;;;;;;4194237;28;19932;-45
2022/03/12 06:56:10;;;;;;;;;;;-2.00;99.90;;;;;;4194262;28;20388;-46
2022/03/12 06:58:12;;;;;;;;;;;-2.00;99.90;;;;;;4193324;28;19925;-46
2022/03/12 07:00:15;;;;;;;;;;;-1.90;99.90;;;;;;4193579;28;19943;-43
2022/03/12 07:02:17;;;;;;;;;;;-1.80;99.90;;;;;;4194140;28;20331;-45
2022/03/12 07:04:21;;;;;;;;;;;-1.80;99.90;;;;;;4194247;28;19931;-43
2022/03/12 07:06:23;;;;;;;;;;;-1.70;99.90;;;;;;4186108;28;19928;-45
2022/03/12 07:08:25;;;;;;;;;;;-1.60;99.90;;;;;;4194056;28;19924;-46
2022/03/12 07:10:28;;;;;;;;;;;-1.60;99.90;;;;;;4194153;28;19982;-45
2022/03/12 07:12:30;;;;;;;;;;;-1.50;99.90;;;;;;4192446;28;19993;-44
2022/03/12 07:14:32;;;;;;;;;;;-1.40;99.90;;;;;;4193010;28;19928;-45
2022/03/12 07:16:34;;;;;;;;;;;-1.30;99.90;;;;;;4192318;28;19925;-43
2022/03/12 07:18:38;;;;;;;;;;;-1.20;99.90;;;;;;4192296;28;19978;-44
2022/03/12 07:20:40;;;;;;;;;;;-1.10;99.90;;;;;;4193767;28;20034;-44
2022/03/12 07:22:42;;;;;;;;;;;-1.00;99.90;;;;;;4184258;28;19995;-43
2022/03/12 07:24:44;;;;;;;;;;;-1.00;99.90;;;;;;4192919;28;19928;-44
2022/03/12 07:26:46;;;;;;;;;;;-0.90;99.90;;;;;;4193975;28;19970;-45
2022/03/12 07:28:49;;;;;;;;;;;-0.80;99.90;;;;;;4193472;28;19928;-45
2022/03/12 07:30:51;;;;;;;;;;;-0.80;99.90;;;;;;4193991;28;20290;-45
2022/03/12 07:32:52;;;;;;;;;;;-0.70;99.90;;;;;;4189055;28;20363;-44
2022/03/12 07:34:55;;;;;;;;;;;-0.60;99.90;;;;;;4188931;28;19928;-44
2022/03/12 07:36:57;;;;;;;;;;;-0.50;99.90;;;;;;4193746;28;19925;-44
2022/03/12 07:39:03;;;;;;;;;;;-0.40;99.90;;;;;;4193607;28;19935;-45
2022/03/12 07:41:05;;;;;;;;;;;-0.20;99.90;;;;;;4192509;28;19942;-44
2022/03/12 07:43:07;;;;;;;;;;;-0.10;99.90;;;;;;4193567;28;19976;-46
2022/03/12 07:45:09;;;;;;;;;;;0.10;99.90;;;;;;4193534;28;20350;-44
2022/03/12 07:47:12;;;;;;;;;;;0.20;99.90;;;;;;4193198;28;20027;-47
2022/03/12 07:49:14;;;;;;;;;;;0.20;99.90;;;;;;4193247;28;20342;-46
2022/03/12 07:51:17;;;;;;;;;;;0.40;99.90;;;;;;4189113;28;20464;-47
2022/03/12 07:53:19;;;;;;;;;;;0.70;99.90;;;;;;4192518;28;19929;-46
2022/03/12 07:55:21;;;;;;;;;;;1.00;99.90;;;;;;4193976;28;20362;-45
2022/03/12 07:57:26;;;;;;;;;;;1.30;99.90;;;;;;4192392;28;19964;-47
2022/03/12 07:59:33;;;;;;;;;;;1.50;99.90;;;;;;4192104;28;19958;-45
2022/03/12 08:01:35;;;;;;;;;;;1.80;99.90;;;;;;4191858;28;19967;-45
2022/03/12 08:03:37;;;;;;;;;;;2.00;99.90;;;;;;4191131;28;20437;-47
2022/03/12 08:05:39;;;;;;;;;;;2.30;99.90;;;;;;4186643;28;19929;-46
2022/03/12 08:07:41;;;;;;;;;;;2.50;99.90;;;;;;4193539;28;20331;-46
2022/03/12 08:09:43;;;;;;;;;;;2.60;99.90;;;;;;4193691;28;20312;-47
2022/03/12 08:11:45;;;;;;;;;;;2.90;99.90;;;;;;4192582;28;19925;-45
2022/03/12 08:13:46;;;;;;;;;;;3.10;99.90;;;;;;4193526;28;19928;-45
2022/03/12 08:15:49;;;;;;;;;;;3.40;99.90;;;;;;4191029;28;19933;-47
2022/03/12 08:17:51;;;;;;;;;;;3.50;99.90;;;;;;4190380;28;20347;-46
2022/03/12 08:19:54;;;;;;;;;;;3.60;99.90;;;;;;4188002;28;19928;-48
2022/03/12 08:21:59;;;;;;;;;;;3.80;99.90;;;;;;4185509;28;19959;-48
2022/03/12 08:24:02;;;;;;;;;;;3.90;99.90;;;;;;4192968;28;19924;-47
2022/03/12 08:26:04;;;;;;;;;;;4.00;99.90;;;;;;4193367;28;19928;-46
2022/03/12 08:28:06;;;;;;;;;;;4.30;99.90;;;;;;4193103;28;19943;-47
2022/03/12 08:30:08;;;;;;;;;;;4.30;99.90;;;;;;4192993;28;19974;-46
2022/03/12 08:32:11;;;;;;;;;;;4.50;99.90;;;;;;4192863;28;19932;-47
2022/03/12 08:34:14;;;;;;;;;;;4.60;99.90;;;;;;4196601;28;19928;-47
2022/03/12 08:36:16;;;;;;;;;;;4.60;99.90;;;;;;4196744;28;19924;-50
2022/03/12 08:38:19;;;;;;;;;;;4.80;99.90;;;;;;4194632;28;19939;-48
2022/03/12 08:40:25;;;;;;;;;;;5.00;99.90;;;;;;4193618;28;19928;-47
2022/03/12 08:42:28;;;;;;;;;;;5.20;99.90;;;;;;4195206;28;20367;-47
2022/03/12 08:44:30;;;;;;;;;;;5.40;99.90;;;;;;4192573;28;19974;-46
2022/03/12 08:46:32;;;;;;;;;;;5.50;99.90;;;;;;4196240;28;19951;-48
2022/03/12 08:48:34;;;;;;;;;;;5.40;99.90;;;;;;4195723;28;19935;-48
2022/03/12 08:50:36;;;;;;;;;;;5.60;99.90;;;;;;4193897;28;19990;-47
2022/03/12 08:52:41;;;;;;;;;;;5.80;99.90;;;;;;4193008;28;20247;-49
2022/03/12 08:54:43;;;;;;;;;;;6.00;99.90;;;;;;4195571;28;19928;-48
2022/03/12 08:56:45;;;;;;;;;;;6.20;99.90;;;;;;4195666;28;19932;-47
2022/03/12 08:58:47;;;;;;;;;;;6.30;99.90;;;;;;4195558;28;20016;-50
2022/03/12 09:00:52;;;;;;;;;;;6.50;99.90;;;;;;4195658;28;19964;-48
2022/03/12 09:02:54;;;;;;;;;;;6.70;99.50;;;;;;4195729;28;20468;-49
2022/03/12 09:04:56;;;;;;;;;;;6.90;99.20;;;;;;4195934;28;19928;-50
2022/03/12 09:06:58;;;;;;;;;;;7.20;99.00;;;;;;4195198;28;20489;-50
2022/03/12 09:08:59;;;;;;;;;;;7.20;97.40;;;;;;4195682;28;19951;-50
2022/03/12 09:11:02;;;;;;;;;;;7.40;98.50;;;;;;4195496;28;19954;-49
2022/03/12 09:13:05;;;;;;;;;;;7.60;96.60;;;;;;4195616;28;19928;-47
2022/03/12 09:15:08;;;;;;;;;;;7.70;94.70;;;;;;4196125;28;19928;-49
2022/03/12 09:17:10;;;;;;;;;;;7.90;96.20;;;;;;4195573;28;20036;-50
2022/03/12 09:19:12;;;;;;;;;;;8.10;95.90;;;;;;4194317;28;19976;-50
2022/03/12 09:21:14;;;;;;;;;;;8.20;93.70;;;;;;4195593;28;20405;-50
2022/03/12 09:23:17;;;;;;;;;;;8.10;93.60;;;;;;4195891;28;20251;-47
2022/03/12 09:25:19;;;;;;;;;;;8.20;94.60;;;;;;4195901;28;20467;-47
2022/03/12 09:27:22;;;;;;;;;;;8.30;92.90;;;;;;4195629;28;20011;-48
2022/03/12 09:29:24;;;;;;;;;;;8.60;92.90;;;;;;4195763;28;19928;-49
2022/03/12 09:31:26;;;;;;;;;;;8.90;93.80;;;;;;4195912;28;19924;-49
2022/03/12 09:33:29;;;;;;;;;;;9.10;92.80;;;;;;4195836;28;19986;-50
2022/03/12 09:35:31;;;;;;;;;;;9.10;91.20;;;;;;4195813;28;19939;-50
2022/03/12 09:37:34;;;;;;;;;;;9.10;92.40;;;;;;4194263;28;20585;-50
2022/03/12 09:39:37;;;;;;;;;;;9.30;90.80;;;;;;4195666;28;19928;-50
2022/03/12 09:41:40;;;;;;;;;;;9.10;91.20;;;;;;4195340;28;19932;-49
2022/03/12 09:43:42;;;;;;;;;;;9.30;93.40;;;;;;4194126;28;19929;-48
2022/03/12 09:45:44;;;;;;;;;;;9.30;90.20;;;;;;4194938;28;19932;-49
2022/03/12 09:47:50;;;;;;;;;;;9.10;90.00;;;;;;4195463;28;20387;-46
2022/03/12 09:49:52;;;;;;;;;;;9.20;90.10;;;;;;4195216;28;19931;-49
2022/03/12 09:51:57;;;;;;;;;;;9.50;90.80;;;;;;4195057;28;19924;-50
2022/03/12 09:53:59;;;;;;;;;;;9.80;88.50;;;;;;4195433;28;20015;-50
2022/03/12 09:56:02;;;;;;;;;;;9.70;88.60;;;;;;4195265;28;19928;-48
2022/03/12 09:58:04;;;;;;;;;;;9.80;88.40;;;;;;4195448;28;19956;-49
2022/03/12 10:00:06;;;;;;;;;;;9.60;86.90;;;;;;4195449;28;20839;-49
2022/03/12 10:02:08;;;;;;;;;;;9.70;87.80;;;;;;4194922;28;19924;-50
2022/03/12 10:04:10;;;;;;;;;;;10.10;90.70;;;;;;4195450;28;19929;-49
2022/03/12 10:06:15;;;;;;;;;;;10.40;88.20;;;;;;4194991;28;20384;-51
2022/03/12 10:08:17;;;;;;;;;;;10.20;88.50;;;;;;4195027;28;19978;-50
2022/03/12 10:10:22;;;;;;;;;;;10.40;87.00;;;;;;4195020;28;19978;-51
2022/03/12 10:12:24;;;;;;;;;;;10.70;89.20;;;;;;4194781;28;19925;-49
2022/03/12 10:14:28;;;;;;;;;;;10.50;84.70;;;;;;4195177;28;20400;-48
2022/03/12 10:16:30;;;;;;;;;;;10.10;84.20;;;;;;4194778;28;19929;-50
2022/03/12 10:18:32;;;;;;;;;;;9.80;84.80;;;;;;4194553;28;19928;-47
2022/03/12 10:20:34;;;;;;;;;;;10.00;88.00;;;;;;4194958;28;19928;-46
2022/03/12 10:22:36;;;;;;;;;;;10.30;86.20;;;;;;4194658;28;19924;-47
2022/03/12 10:24:38;;;;;;;;;;;10.40;85.00;;;;;;4195220;28;20019;-46
2022/03/12 10:26:41;;;;;;;;;;;10.70;84.60;;;;;;4191464;28;19932;-48
2022/03/12 10:28:44;;;;;;;;;;;10.50;86.40;;;;;;4194547;28;19950;-47
2022/03/12 10:30:46;;;;;;;;;;;10.90;86.20;;;;;;4193219;28;19936;-48
2022/03/12 10:32:50;;;;;;;;;;;11.30;85.90;;;;;;4186958;28;19986;-47
2022/03/12 10:34:52;;;;;;;;;;;11.30;87.60;;;;;;4184768;28;19963;-50
2022/03/12 10:36:56;;;;;;;;;;;11.20;82.40;;;;;;4186028;28;19937;-50
2022/03/12 10:39:03;;;;;;;;;;;11.00;81.30;;;;;;4192897;28;20406;-50
2022/03/12 10:41:06;;;;;;;;;;;10.90;85.30;;;;;;4194412;28;20028;-50
2022/03/12 10:43:13;;;;;;;;;;;11.10;83.10;;;;;;4194638;28;20618;-51
2022/03/12 10:45:17;;;;;;;;;;;10.70;85.40;;;;;;4188707;28;20427;-51
2022/03/12 10:47:22;;;;;;;;;;;11.10;86.40;;;;;;4192979;28;19928;-49
2022/03/12 10:49:24;;;;;;;;;;;11.10;81.90;;;;;;4193198;28;19925;-46
2022/03/12 10:51:26;;;;;;;;;;;11.00;82.40;;;;;;4190038;28;19929;-48
2022/03/12 10:53:29;;;;;;;;;;;11.30;84.50;;;;;;4187372;28;19924;-48
2022/03/12 10:55:33;;;;;;;;;;;11.40;83.60;;;;;;4192305;28;19935;-47
2022/03/12 10:57:36;;;;;;;;;;;11.70;82.10;;;;;;4182667;28;19963;-49
2022/03/12 10:59:37;;;;;;;;;;;11.70;83.30;;;;;;4189204;28;19932;-49
2022/03/12 11:01:52;;;;;;;;;;;11.70;82.20;;;;;;4193640;28;20054;-48
2022/03/12 11:03:55;;;;;;;;;;;11.60;81.20;;;;;;4194325;28;20372;-47
2022/03/12 11:05:58;;;;;;;;;;;12.00;82.70;;;;;;4193012;28;19925;-48
2022/03/12 11:08:06;;;;;;;;;;;12.30;82.40;;;;;;4188469;28;19928;-50
2022/03/12 11:10:08;;;;;;;;;;;12.20;80.00;;;;;;4189251;28;19982;-50
2022/03/12 11:12:30;;;;;;;;;;;11.80;80.50;;;;;;4188779;28;19935;-49
2022/03/12 11:14:32;;;;;;;;;;;11.50;80.00;;;;;;4190476;28;19928;-50
2022/03/12 11:16:35;;;;;;;;;;;11.90;81.20;;;;;;4186442;28;19929;-49
2022/03/12 11:18:37;;;;;;;;;;;12.50;83.70;;;;;;4188369;28;19955;-50
2022/03/12 11:20:39;;;;;;;;;;;13.10;82.90;;;;;;4188704;28;19944;-49
2022/03/12 11:22:41;;;;;;;;;;;13.20;79.60;;;;;;4188119;28;19934;-48
2022/03/12 11:24:50;;;;;;;;;;;12.60;78.90;;;;;;4188112;28;19939;-48
2022/03/12 11:26:58;;;;;;;;;;;12.60;78.20;;;;;;4189649;28;19950;-48
2022/03/12 11:29:01;;;;;;;;;;;12.40;78.60;;;;;;4187057;28;19929;-50
2022/03/12 11:31:07;;;;;;;;;;;12.30;80.00;;;;;;4184311;28;19978;-49
2022/03/12 11:33:09;;;;;;;;;;;12.10;79.20;;;;;;4190238;28;19981;-48
2022/03/12 11:35:15;;;;;;;;;;;11.80;77.80;;;;;;4187199;28;19937;-50
2022/03/12 11:37:18;;;;;;;;;;;11.70;82.20;;;;;;4183412;28;19947;-50
2022/03/12 11:39:26;;;;;;;;;;;12.20;78.20;;;;;;4189761;28;19928;-48
2022/03/12 11:41:28;;;;;;;;;;;12.10;81.80;;;;;;4188198;28;19938;-48
2022/03/12 11:43:31;;;;;;;;;;;11.60;76.60;;;;;;4187259;28;20416;-48
2022/03/12 11:45:36;;;;;;;;;;;11.10;79.30;;;;;;4186097;28;19928;-49
2022/03/12 11:47:40;;;;;;;;;;;11.50;79.20;;;;;;4190309;28;20545;-49
2022/03/12 11:49:43;;;;;;;;;;;11.50;81.50;;;;;;4186579;28;19928;-50
2022/03/12 11:51:46;;;;;;;;;;;11.30;79.30;;;;;;4188948;28;19929;-49
2022/03/12 11:53:48;;;;;;;;;;;11.60;79.30;;;;;;4193373;28;19978;-50
2022/03/12 11:55:51;;;;;;;;;;;11.40;78.00;;;;;;4192575;28;19928;-48
2022/03/12 11:57:56;;;;;;;;;;;11.90;78.40;;;;;;4193353;28;19931;-48